Time;durP1;ratioP1;P1;durP2;ratioP2;P2;SDS_P1;SDS_P2;PMS_P1;PMS_P2;Temp;Humidity;BMP_temperature;BMP_pressure;BME280_temperature;BME280_humidity;BME280_pressure;Samples;Min_cycle;Max_cycle;Signal;HPM_P1;HPM_P2
2022/12/20 00:01:27;;;;;;;10.17;2.17;;;21.40;53.10;;;;;;5053500;28;20229;-64
2022/12/20 00:03:56;;;;;;;9.27;2.00;;;21.50;53.10;;;;;;5053031;28;20230;-65
2022/12/20 00:06:24;;;;;;;9.67;2.03;;;21.90;53.00;;;;;;5052828;28;20201;-66
2022/12/20 00:09:00;;;;;;;7.87;1.90;;;21.90;52.40;;;;;;5052288;28;20184;-68
2022/12/20 00:11:28;;;;;;;8.33;2.17;;;21.50;52.40;;;;;;5047817;28;20196;-65
2022/12/20 00:13:56;;;;;;;11.33;2.37;;;21.20;53.70;;;;;;5053065;28;20200;-65
2022/12/20 00:16:28;;;;;;;7.67;2.03;;;21.00;54.70;;;;;;5051899;28;20734;-66
2022/12/20 00:18:58;;;;;;;10.20;2.10;;;21.20;55.10;;;;;;5050583;28;20191;-68
2022/12/20 00:21:26;;;;;;;10.87;2.07;;;21.20;53.10;;;;;;5053076;28;20176;-65
2022/12/20 00:23:54;;;;;;;5.70;1.67;;;21.40;53.00;;;;;;5053192;28;20275;-70
2022/12/20 00:26:25;;;;;;;11.30;2.37;;;21.90;51.20;;;;;;5053477;28;20266;-66
2022/12/20 00:28:53;;;;;;;8.70;1.80;;;21.70;52.40;;;;;;5053045;28;20552;-70
2022/12/20 00:31:23;;;;;;;9.30;1.80;;;21.60;51.50;;;;;;5046700;28;20203;-69
2022/12/20 00:33:53;;;;;;;11.90;2.17;;;21.40;51.90;;;;;;5053102;28;20184;-67
2022/12/20 00:36:23;;;;;;;7.00;1.80;;;21.30;53.00;;;;;;5052296;28;20235;-66
2022/12/20 00:38:53;;;;;;;12.37;2.50;;;21.20;54.60;;;;;;5040040;28;20188;-65
2022/12/20 00:41:29;;;;;;;11.20;2.37;;;21.30;52.70;;;;;;5049177;28;20176;-64
2022/12/20 00:43:57;;;;;;;10.77;2.00;;;21.30;53.90;;;;;;5052505;28;20211;-65
2022/12/20 00:46:25;;;;;;;12.63;2.60;;;21.20;53.80;;;;;;5053208;28;20673;-65
2022/12/20 00:48:55;;;;;;;11.50;2.30;;;20.80;55.80;;;;;;5052449;28;20235;-65
2022/12/20 00:51:27;;;;;;;10.07;2.37;;;20.80;55.30;;;;;;5050730;28;20190;-64
2022/12/20 00:53:56;;;;;;;13.40;2.73;;;20.70;56.30;;;;;;5051183;28;20586;-64
2022/12/20 00:56:23;;;;;;;13.23;2.23;;;20.60;56.50;;;;;;5037207;28;20292;-64
2022/12/20 00:58:52;;;;;;;5.47;1.97;;;20.70;56.00;;;;;;5051839;28;20650;-64
2022/12/20 01:01:23;;;;;;;9.67;2.20;;;20.70;56.50;;;;;;5051474;28;20189;-64
2022/12/20 01:03:51;;;;;;;8.67;2.30;;;20.70;56.40;;;;;;5052972;28;20198;-64
2022/12/20 01:06:21;;;;;;;7.53;1.87;;;20.80;56.70;;;;;;5052356;28;20222;-64
2022/12/20 01:08:48;;;;;;;11.17;2.27;;;21.00;55.80;;;;;;5051352;28;20207;-65
2022/12/20 01:11:18;;;;;;;12.03;2.00;;;21.20;55.50;;;;;;5052502;28;20180;-65
2022/12/20 01:13:48;;;;;;;7.30;1.90;;;21.00;55.10;;;;;;5052571;28;20179;-65
2022/12/20 01:16:24;;;;;;;11.60;2.07;;;20.90;54.90;;;;;;5052575;28;20208;-64
2022/12/20 01:18:52;;;;;;;13.53;2.50;;;21.00;54.30;;;;;;5052321;28;20183;-66
2022/12/20 01:21:21;;;;;;;9.23;2.23;;;21.20;53.70;;;;;;5052090;28;20542;-66
2022/12/20 01:23:49;;;;;;;10.33;2.30;;;21.10;54.50;;;;;;5032743;28;20180;-64
2022/12/20 01:26:18;;;;;;;10.90;2.57;;;21.20;53.70;;;;;;5050391;28;20180;-65
2022/12/20 01:28:49;;;;;;;10.93;1.97;;;21.20;53.40;;;;;;5052405;28;20214;-64
2022/12/20 01:31:18;;;;;;;7.50;2.80;;;21.20;52.60;;;;;;5052306;28;20168;-65
2022/12/20 01:33:47;;;;;;;6.07;2.73;;;21.40;51.60;;;;;;5050498;28;20180;-65
2022/12/20 01:36:17;;;;;;;5.80;1.73;;;21.80;50.70;;;;;;5049661;28;20251;-65
2022/12/20 01:38:45;;;;;;;8.03;1.83;;;22.30;47.80;;;;;;5051089;28;20175;-65
2022/12/20 01:41:21;;;;;;;7.57;1.80;;;21.90;49.90;;;;;;5048580;28;20183;-64
2022/12/20 01:43:50;;;;;;;13.07;2.30;;;21.70;49.70;;;;;;5052080;28;20179;-71
2022/12/20 01:46:20;;;;;;;8.17;2.10;;;21.30;51.70;;;;;;5037046;28;20184;-66
2022/12/20 01:49:03;;;;;;;13.47;2.37;;;20.90;52.20;;;;;;5045319;28;20231;-66
2022/12/20 01:51:34;;;;;;;11.67;2.20;;;21.60;52.30;;;;;;5051202;28;20190;-68
2022/12/20 01:54:10;;;;;;;6.13;1.43;;;22.30;49.10;;;;;;5045988;28;20211;-66
2022/12/20 01:56:39;;;;;;;7.43;2.03;;;22.80;48.00;;;;;;5045284;28;20621;-70
2022/12/20 01:59:07;;;;;;;6.63;1.70;;;22.60;48.10;;;;;;5051850;28;20183;-65
2022/12/20 02:01:35;;;;;;;8.97;2.13;;;22.50;48.50;;;;;;5052306;28;20259;-65
2022/12/20 02:04:02;;;;;;;8.10;2.03;;;22.90;48.20;;;;;;5055246;28;20262;-65
2022/12/20 02:06:29;;;;;;;6.63;1.63;;;23.10;47.70;;;;;;5055802;28;20204;-65
2022/12/20 02:09:01;;;;;;;9.37;1.80;;;22.80;46.30;;;;;;5055592;28;20536;-64
2022/12/20 02:11:46;;;;;;;6.07;1.63;;;23.00;45.80;;;;;;5035994;28;20195;-65
2022/12/20 02:14:48;;;;;;;8.90;1.87;;;22.90;45.20;;;;;;5053735;28;20270;-64
2022/12/20 02:17:24;;;;;;;9.17;2.07;;;23.20;46.10;;;;;;5046568;28;20285;-64
2022/12/20 02:20:34;;;;;;;8.47;1.73;;;23.30;45.30;;;;;;5052517;28;20180;-66
2022/12/20 02:23:32;;;;;;;5.57;1.70;;;23.30;45.10;;;;;;5018567;28;20192;-65
2022/12/20 02:26:18;;;;;;;12.37;1.60;;;23.10;44.10;;;;;;5055287;28;20176;-65
2022/12/20 02:29:09;;;;;;;6.03;1.87;;;23.70;44.70;;;;;;5049970;28;20258;-65
2022/12/20 02:31:51;;;;;;;6.97;1.57;;;23.30;42.80;;;;;;5055256;28;20176;-65
2022/12/20 02:34:23;;;;;;;7.10;1.67;;;23.60;43.00;;;;;;5055326;28;20203;-64
2022/12/20 02:36:51;;;;;;;9.10;2.40;;;23.20;44.50;;;;;;5054957;28;20218;-66
2022/12/20 02:39:20;;;;;;;4.17;1.40;;;23.40;46.20;;;;;;5054957;28;20172;-69
2022/12/20 02:41:56;;;;;;;5.87;1.63;;;23.60;43.50;;;;;;5055250;28;20622;-68
2022/12/20 02:47:22;;;;;;;14.07;2.07;;;23.30;45.80;;;;;;5054523;28;20699;-65
2022/12/20 02:49:51;;;;;;;15.70;5.63;;;23.30;45.60;;;;;;5055193;28;20220;-65
2022/12/20 02:52:21;;;;;;;9.53;2.33;;;23.40;45.40;;;;;;5053636;28;20176;-64
2022/12/20 02:54:48;;;;;;;9.60;2.50;;;23.90;44.90;;;;;;5053354;28;20207;-64
2022/12/20 02:57:33;;;;;;;4.50;1.30;;;24.40;44.40;;;;;;5054608;28;20569;-64
2022/12/20 03:00:14;;;;;;;8.47;1.80;;;24.40;41.00;;;;;;5054779;28;20180;-65
2022/12/20 03:05:32;;;;;;;8.33;1.80;;;24.30;42.90;;;;;;5054849;28;20183;-64
2022/12/20 03:07:59;;;;;;;6.17;1.73;;;24.30;44.40;;;;;;5050791;28;20179;-66
2022/12/20 03:10:27;;;;;;;5.17;1.70;;;24.60;42.60;;;;;;5043344;28;20176;-65
2022/12/20 03:12:55;;;;;;;5.30;1.50;;;24.70;42.90;;;;;;5053918;28;20218;-64
2022/12/20 03:15:22;;;;;;;6.27;1.60;;;24.50;42.20;;;;;;5049314;28;20229;-64
2022/12/20 03:17:50;;;;;;;6.97;2.00;;;24.50;42.10;;;;;;5048198;28;20709;-65
2022/12/20 03:20:17;;;;;;;8.37;1.60;;;24.90;43.00;;;;;;5053681;28;20195;-65
2022/12/20 03:22:45;;;;;;;7.37;1.33;;;24.80;42.90;;;;;;5047293;28;20650;-64
2022/12/20 03:25:13;;;;;;;5.53;1.50;;;25.20;42.10;;;;;;5054170;28;20530;-64
2022/12/20 03:27:40;;;;;;;5.60;1.40;;;25.00;42.10;;;;;;5049833;28;20173;-66
2022/12/20 03:30:08;;;;;;;7.17;1.53;;;24.20;43.60;;;;;;5053416;28;20237;-64
2022/12/20 03:32:35;;;;;;;6.00;1.70;;;24.40;43.50;;;;;;5049974;28;20176;-64
2022/12/20 03:35:03;;;;;;;4.07;1.67;;;24.60;42.80;;;;;;5052788;28;20672;-65
2022/12/20 03:37:31;;;;;;;6.97;1.40;;;25.00;43.40;;;;;;5051955;28;20225;-66
2022/12/20 03:39:58;;;;;;;4.17;1.30;;;25.50;41.90;;;;;;5052265;28;20208;-64
2022/12/20 03:42:25;;;;;;;7.10;1.73;;;24.90;42.30;;;;;;5053315;28;20172;-64
2022/12/20 03:44:53;;;;;;;4.03;1.23;;;24.90;42.70;;;;;;5054119;28;20187;-66
2022/12/20 03:47:20;;;;;;;3.57;1.10;;;25.20;42.70;;;;;;5053597;28;20179;-65
2022/12/20 03:49:48;;;;;;;6.23;1.30;;;24.50;43.40;;;;;;5053188;28;20246;-68
2022/12/20 03:52:15;;;;;;;8.03;1.63;;;24.80;42.70;;;;;;5053909;28;20168;-66
2022/12/20 03:54:42;;;;;;;6.53;1.10;;;25.10;41.80;;;;;;5053629;28;20183;-71
2022/12/20 03:57:10;;;;;;;6.30;1.30;;;25.10;42.70;;;;;;5053028;28;20303;-71
2022/12/20 03:59:37;;;;;;;5.07;1.53;;;25.10;42.80;;;;;;5053180;28;20187;-74
2022/12/20 04:02:05;;;;;;;3.97;1.00;;;25.40;42.90;;;;;;5053780;28;20187;-65
2022/12/20 04:04:32;;;;;;;3.77;1.03;;;25.90;39.10;;;;;;5053503;28;20638;-72
2022/12/20 04:06:59;;;;;;;5.70;1.50;;;25.70;40.30;;;;;;5050358;28;20242;-67
2022/12/20 04:09:27;;;;;;;3.17;0.80;;;25.50;39.10;;;;;;5039811;28;20195;-65
2022/12/20 04:11:54;;;;;;;3.43;1.20;;;26.10;37.10;;;;;;5043870;28;20186;-66
2022/12/20 04:14:22;;;;;;;3.70;1.20;;;25.80;38.40;;;;;;5049352;28;20259;-71
2022/12/20 04:16:49;;;;;;;3.93;1.10;;;26.50;38.00;;;;;;5050667;28;20215;-65
2022/12/20 04:19:17;;;;;;;3.97;1.00;;;27.10;37.70;;;;;;5050578;28;20188;-66
2022/12/20 04:21:45;;;;;;;4.87;1.27;;;27.40;35.10;;;;;;5047485;28;20631;-67
2022/12/20 04:24:12;;;;;;;3.93;1.40;;;26.90;36.30;;;;;;5072841;28;20194;-68
2022/12/20 04:26:39;;;;;;;3.20;1.20;;;26.80;37.50;;;;;;5052243;28;20187;-70
2022/12/20 04:29:07;;;;;;;4.03;1.20;;;26.60;38.60;;;;;;5052982;28;20199;-74
2022/12/20 04:31:35;;;;;;;4.20;1.20;;;26.70;37.60;;;;;;5052733;28;20195;-71
2022/12/20 04:34:02;;;;;;;3.77;1.10;;;26.50;36.70;;;;;;5052734;28;20195;-67
2022/12/20 04:36:30;;;;;;;3.50;0.90;;;26.20;37.90;;;;;;5052863;28;20208;-69
2022/12/20 04:38:57;;;;;;;4.90;1.10;;;26.30;38.60;;;;;;5052434;28;20626;-68
2022/12/20 04:41:25;;;;;;;3.87;1.10;;;26.10;39.30;;;;;;5053114;28;20184;-66
2022/12/20 04:43:55;;;;;;;2.57;0.80;;;25.40;40.60;;;;;;5052869;28;20195;-69
2022/12/20 04:46:25;;;;;;;2.57;1.23;;;25.60;39.80;;;;;;5052671;28;20175;-65
2022/12/20 04:48:53;;;;;;;2.93;1.03;;;25.90;38.10;;;;;;5052746;28;20238;-66
2022/12/20 04:51:21;;;;;;;4.63;0.73;;;25.20;39.20;;;;;;5052548;28;20259;-65
2022/12/20 04:53:48;;;;;;;5.63;1.30;;;25.80;39.00;;;;;;5052562;28;20192;-69
2022/12/20 04:56:28;;;;;;;7.63;1.53;;;25.90;40.20;;;;;;5051127;28;20572;-67
2022/12/20 04:58:58;;;;;;;5.97;1.37;;;25.80;40.00;;;;;;5052880;28;20188;-69
2022/12/20 05:01:25;;;;;;;5.43;1.17;;;26.60;39.60;;;;;;5048551;28;20184;-67
2022/12/20 05:03:53;;;;;;;4.93;1.20;;;26.40;40.50;;;;;;5047522;28;20524;-66
2022/12/20 05:06:20;;;;;;;6.23;1.17;;;26.80;39.60;;;;;;5050968;28;20270;-65
2022/12/20 05:08:48;;;;;;;6.23;1.60;;;26.20;40.60;;;;;;5052358;28;20657;-67
2022/12/20 05:11:16;;;;;;;4.20;1.27;;;26.00;40.60;;;;;;5052388;28;20184;-67
2022/12/20 05:13:43;;;;;;;3.97;1.27;;;26.10;40.50;;;;;;5052450;28;20195;-66
2022/12/20 05:16:11;;;;;;;4.60;1.20;;;26.70;38.90;;;;;;5053695;28;20221;-67
2022/12/20 05:18:38;;;;;;;4.63;1.30;;;26.60;38.30;;;;;;5055511;28;20188;-65
2022/12/20 05:26:38;;;;;;;5.00;0.87;;;27.10;38.00;;;;;;5052535;28;20246;-69
2022/12/20 05:29:06;;;;;;;5.63;1.13;;;26.70;38.80;;;;;;5052143;28;20237;-67
2022/12/20 05:31:33;;;;;;;2.70;0.87;;;26.50;40.40;;;;;;5051732;28;20211;-67
2022/12/20 05:34:01;;;;;;;5.60;1.53;;;26.80;40.10;;;;;;5053048;28;20188;-65
2022/12/20 05:36:28;;;;;;;6.03;1.50;;;25.80;42.60;;;;;;5060454;28;20207;-72
2022/12/20 05:38:56;;;;;;;5.33;1.07;;;24.30;46.50;;;;;;5059296;28;20631;-65
2022/12/20 05:41:24;;;;;;;5.43;1.53;;;23.80;47.80;;;;;;5056254;28;20175;-69
2022/12/20 05:43:51;;;;;;;6.67;1.60;;;24.00;46.70;;;;;;5056024;28;20187;-64
2022/12/20 05:46:18;;;;;;;5.57;1.23;;;24.80;45.50;;;;;;5053837;28;20180;-63
2022/12/20 05:48:46;;;;;;;4.17;1.40;;;24.30;45.50;;;;;;5054829;28;20219;-65
2022/12/20 05:51:13;;;;;;;4.07;1.20;;;24.10;46.60;;;;;;5056361;28;20268;-65
2022/12/20 05:53:41;;;;;;;6.20;1.30;;;23.80;46.30;;;;;;5056104;28;20596;-64
2022/12/20 05:56:08;;;;;;;5.80;1.47;;;23.40;48.20;;;;;;5055815;28;20235;-65
2022/12/20 05:58:36;;;;;;;6.17;1.60;;;23.90;46.30;;;;;;5053517;28;20550;-65
2022/12/20 06:01:05;;;;;;;8.73;1.70;;;23.40;48.30;;;;;;5055801;28;20283;-64
2022/12/20 06:03:33;;;;;;;3.47;1.37;;;23.30;48.50;;;;;;5055520;28;20250;-65
2022/12/20 06:06:00;;;;;;;3.80;1.33;;;23.10;48.70;;;;;;5055808;28;20176;-65
2022/12/20 06:08:27;;;;;;;5.73;1.50;;;24.50;46.10;;;;;;5056333;28;20687;-65
2022/12/20 06:10:58;;;;;;;7.50;1.67;;;25.60;43.50;;;;;;5052598;28;20635;-65
2022/12/20 06:13:25;;;;;;;2.77;1.47;;;26.10;41.80;;;;;;5055973;28;20657;-66
2022/12/20 06:15:53;;;;;;;2.93;1.17;;;27.20;39.60;;;;;;5055982;28;20203;-64
2022/12/20 06:18:20;;;;;;;7.33;1.40;;;27.70;38.00;;;;;;5055823;28;20180;-64
2022/12/20 06:20:51;;;;;;;4.33;0.87;;;26.90;39.00;;;;;;5053175;28;20270;-63
2022/12/20 06:23:19;;;;;;;5.37;1.23;;;27.00;38.80;;;;;;5054674;28;20188;-64
2022/12/20 06:25:47;;;;;;;4.30;1.20;;;27.60;37.90;;;;;;5054219;28;20180;-67
2022/12/20 06:28:20;;;;;;;4.43;1.00;;;27.60;37.80;;;;;;5054977;28;20184;-65
2022/12/20 06:30:55;;;;;;;4.63;1.13;;;26.30;39.50;;;;;;5055145;28;20187;-65
2022/12/20 06:33:23;;;;;;;9.03;1.30;;;25.80;41.00;;;;;;5051908;28;20191;-64
2022/12/20 06:35:51;;;;;;;7.13;1.03;;;26.20;39.20;;;;;;5051808;28;20184;-71
2022/12/20 06:38:18;;;;;;;4.03;1.10;;;26.30;38.10;;;;;;5055014;28;20184;-65
2022/12/20 06:40:46;;;;;;;3.87;1.17;;;26.50;38.40;;;;;;5038221;28;20267;-65
2022/12/20 06:43:13;;;;;;;5.70;1.43;;;26.40;38.50;;;;;;5055331;28;20176;-67
2022/12/20 06:45:40;;;;;;;3.17;1.03;;;26.30;39.20;;;;;;5055356;28;20184;-69
2022/12/20 06:48:08;;;;;;;3.30;1.17;;;25.90;39.70;;;;;;5050140;28;20243;-72
2022/12/20 06:50:35;;;;;;;4.97;1.20;;;26.00;39.60;;;;;;5054973;28;20184;-68
2022/12/20 06:53:03;;;;;;;8.87;1.60;;;26.00;38.90;;;;;;5049705;28;20663;-65
2022/12/20 06:55:30;;;;;;;5.23;1.40;;;26.00;39.20;;;;;;5054486;28;20212;-71
2022/12/20 06:57:57;;;;;;;5.70;1.53;;;25.90;39.00;;;;;;5055053;28;20223;-66
2022/12/20 07:00:26;;;;;;;3.00;1.37;;;26.90;37.80;;;;;;5054313;28;20172;-72
2022/12/20 07:02:53;;;;;;;3.43;1.10;;;26.80;38.00;;;;;;5054333;28;20682;-71
2022/12/20 07:05:21;;;;;;;6.77;1.30;;;26.70;36.70;;;;;;5053007;28;20179;-72
2022/12/20 07:07:48;;;;;;;5.00;1.23;;;25.90;38.50;;;;;;5054385;28;20210;-69
2022/12/20 07:10:16;;;;;;;2.37;0.90;;;26.20;38.30;;;;;;5054004;28;20188;-65
2022/12/20 07:12:43;;;;;;;3.87;1.30;;;26.10;38.20;;;;;;5055102;28;20626;-70
2022/12/20 07:15:11;;;;;;;6.10;1.50;;;25.60;38.50;;;;;;5054399;28;20270;-66
2022/12/20 07:17:38;;;;;;;4.00;1.20;;;25.30;39.50;;;;;;5054532;28;20574;-64
2022/12/20 07:20:06;;;;;;;3.33;1.00;;;24.60;41.10;;;;;;5053972;28;20187;-65
2022/12/20 07:22:34;;;;;;;3.83;1.13;;;23.90;42.40;;;;;;5038601;28;20184;-65
2022/12/20 07:25:01;;;;;;;4.53;1.00;;;23.30;43.50;;;;;;5045866;28;20317;-66
2022/12/20 07:27:29;;;;;;;3.73;1.10;;;23.00;43.10;;;;;;5053485;28;20694;-65
2022/12/20 07:29:56;;;;;;;3.73;1.17;;;22.60;43.90;;;;;;5054058;28;20188;-66
2022/12/20 07:32:23;;;;;;;3.43;1.40;;;22.40;44.40;;;;;;5054508;28;20176;-66
2022/12/20 07:34:51;;;;;;;2.30;0.90;;;22.10;45.40;;;;;;5054305;28;20184;-65
2022/12/20 07:37:18;;;;;;;4.17;0.93;;;21.80;45.90;;;;;;5053874;28;20231;-66
2022/12/20 07:39:45;;;;;;;2.50;1.07;;;21.70;46.80;;;;;;5053844;28;20173;-63
2022/12/20 07:42:13;;;;;;;5.03;1.40;;;21.80;46.30;;;;;;5048454;28;20965;-66
2022/12/20 07:44:40;;;;;;;3.97;1.37;;;21.60;46.10;;;;;;5053491;28;20180;-67
2022/12/20 07:47:08;;;;;;;2.83;1.10;;;21.50;47.10;;;;;;5051757;28;20642;-66
2022/12/20 07:49:36;;;;;;;4.80;1.40;;;21.80;46.80;;;;;;5053759;28;20232;-64
2022/12/20 07:52:05;;;;;;;5.50;1.20;;;22.20;45.60;;;;;;5053668;28;20278;-64
2022/12/20 07:54:40;;;;;;;5.13;1.00;;;22.10;45.30;;;;;;5053917;28;20180;-65
2022/12/20 07:57:33;;;;;;;3.37;1.00;;;21.50;45.70;;;;;;5053628;28;20214;-65
2022/12/20 08:00:03;;;;;;;3.20;1.13;;;21.30;47.10;;;;;;5052746;28;20180;-64
2022/12/20 08:02:46;;;;;;;2.17;1.00;;;21.30;47.10;;;;;;5051729;28;20638;-64
2022/12/20 08:05:14;;;;;;;4.77;0.90;;;21.20;47.70;;;;;;5050861;28;20183;-64
2022/12/20 08:07:43;;;;;;;4.27;1.07;;;20.90;49.00;;;;;;5052021;28;20176;-64
2022/12/20 08:10:13;;;;;;;7.70;1.20;;;20.80;50.50;;;;;;5053691;28;20176;-63
2022/12/20 08:12:43;;;;;;;3.67;0.90;;;20.80;50.90;;;;;;5052713;28;20194;-65
2022/12/20 08:15:11;;;;;;;5.07;1.20;;;20.60;52.10;;;;;;5053624;28;20208;-64
2022/12/20 08:17:39;;;;;;;6.03;1.50;;;20.40;54.10;;;;;;5051992;28;20258;-64
2022/12/20 08:20:07;;;;;;;4.53;1.57;;;20.50;55.10;;;;;;5053036;28;20172;-66
2022/12/20 08:22:35;;;;;;;6.10;1.23;;;20.30;56.50;;;;;;5064689;28;20184;-64
2022/12/20 08:25:03;;;;;;;7.30;2.60;;;20.30;57.00;;;;;;5052884;28;20549;-64
2022/12/20 08:27:31;;;;;;;4.90;1.80;;;20.20;56.90;;;;;;5047419;28;20184;-64
2022/12/20 08:29:58;;;;;;;6.33;2.00;;;20.30;56.70;;;;;;5041292;28;20260;-64
2022/12/20 08:32:26;;;;;;;5.77;1.87;;;20.30;57.40;;;;;;5042983;28;20195;-64
2022/12/20 08:34:54;;;;;;;4.47;1.33;;;20.20;57.20;;;;;;5051410;28;20740;-64
2022/12/20 08:37:21;;;;;;;5.77;1.50;;;20.20;57.40;;;;;;5048505;28;20219;-64
2022/12/20 08:39:48;;;;;;;6.40;1.73;;;20.10;57.80;;;;;;5051715;28;20258;-63
2022/12/20 08:42:16;;;;;;;4.07;1.20;;;19.90;58.30;;;;;;5052721;28;20187;-66
2022/12/20 08:44:43;;;;;;;3.80;1.40;;;19.80;57.60;;;;;;5047649;28;20188;-64
2022/12/20 08:47:11;;;;;;;7.60;1.83;;;19.80;57.40;;;;;;5052876;28;20246;-64
2022/12/20 08:49:38;;;;;;;5.33;1.20;;;19.70;58.10;;;;;;5052725;28;20258;-64
2022/12/20 08:52:06;;;;;;;5.77;1.30;;;19.70;58.30;;;;;;5052355;28;20305;-64
2022/12/20 08:54:33;;;;;;;4.83;1.43;;;19.60;59.00;;;;;;5050568;28;20579;-64
2022/12/20 08:57:01;;;;;;;2.20;0.90;;;19.70;59.10;;;;;;5046754;28;20211;-64
2022/12/20 08:59:28;;;;;;;5.93;1.53;;;19.50;59.20;;;;;;5036773;28;20189;-69
2022/12/20 09:01:56;;;;;;;4.57;1.30;;;19.30;59.80;;;;;;5049651;28;20530;-64
2022/12/20 09:04:23;;;;;;;5.07;1.50;;;19.20;60.20;;;;;;5047541;28;20176;-64
2022/12/20 09:06:51;;;;;;;1.70;1.13;;;19.00;60.40;;;;;;5047915;28;20594;-64
2022/12/20 09:09:18;;;;;;;6.43;1.30;;;19.00;60.10;;;;;;5042158;28;20647;-64
2022/12/20 09:11:46;;;;;;;9.20;1.57;;;18.90;60.40;;;;;;5044694;28;20195;-64
2022/12/20 09:14:14;;;;;;;2.97;1.03;;;18.80;60.60;;;;;;5048749;28;20180;-64
2022/12/20 09:16:42;;;;;;;3.33;0.97;;;18.80;60.60;;;;;;5049068;28;20243;-65
2022/12/20 09:19:12;;;;;;;3.73;1.20;;;18.60;60.60;;;;;;5041510;28;20180;-64
2022/12/20 09:21:40;;;;;;;5.33;1.20;;;18.60;61.10;;;;;;5043879;28;20238;-63
2022/12/20 09:24:08;;;;;;;3.70;1.07;;;18.60;61.20;;;;;;5046479;28;20184;-64
2022/12/20 09:26:36;;;;;;;6.33;1.27;;;18.60;61.70;;;;;;5043607;28;20177;-66
2022/12/20 09:29:04;;;;;;;3.20;1.17;;;18.50;61.70;;;;;;5043724;28;20250;-64
2022/12/20 09:31:31;;;;;;;4.27;1.10;;;18.40;61.50;;;;;;5040172;28;20209;-65
2022/12/20 09:33:59;;;;;;;5.03;1.20;;;18.40;61.60;;;;;;5039659;28;20177;-64
2022/12/20 09:36:29;;;;;;;7.77;1.60;;;18.30;61.60;;;;;;5043265;28;20307;-65
2022/12/20 09:38:56;;;;;;;2.93;1.20;;;18.30;62.20;;;;;;5047735;28;20195;-67
2022/12/20 09:41:41;;;;;;;6.10;1.30;;;18.30;61.80;;;;;;5037895;28;20176;-66
2022/12/20 09:44:19;;;;;;;7.33;1.23;;;18.30;62.20;;;;;;5038027;28;20652;-66
2022/12/20 09:46:59;;;;;;;4.37;1.40;;;18.30;62.40;;;;;;5034971;28;20180;-67
2022/12/20 09:49:30;;;;;;;4.67;1.30;;;18.30;62.60;;;;;;5048271;28;20277;-66
2022/12/20 09:52:28;;;;;;;6.60;1.50;;;18.30;63.00;;;;;;5050757;28;20255;-69
2022/12/20 09:55:14;;;;;;;5.97;1.30;;;18.20;63.30;;;;;;5050546;28;20692;-65
2022/12/20 09:57:50;;;;;;;3.30;1.23;;;18.10;63.60;;;;;;5047882;28;20207;-66
2022/12/20 10:00:20;;;;;;;4.73;1.00;;;18.20;63.40;;;;;;5046312;28;20650;-64
2022/12/20 10:02:49;;;;;;;3.70;1.03;;;18.30;63.50;;;;;;5051589;28;20184;-65
2022/12/20 10:05:22;;;;;;;5.80;1.50;;;18.20;63.40;;;;;;5051623;28;20265;-66
2022/12/20 10:07:54;;;;;;;3.50;1.33;;;18.20;63.70;;;;;;5049291;28;20176;-66
2022/12/20 10:10:49;;;;;;;9.30;1.60;;;18.10;64.00;;;;;;5048746;28;20672;-65
2022/12/20 10:13:35;;;;;;;4.33;1.50;;;18.10;63.80;;;;;;5050159;28;20262;-65
2022/12/20 10:16:14;;;;;;;3.50;1.57;;;18.10;63.80;;;;;;5050751;28;20176;-65
2022/12/20 10:18:56;;;;;;;2.73;1.40;;;18.10;64.00;;;;;;5052204;28;20649;-65
2022/12/20 10:21:46;;;;;;;4.77;1.37;;;18.00;64.20;;;;;;5043288;28;20173;-65
2022/12/20 10:24:31;;;;;;;5.00;1.23;;;18.00;64.30;;;;;;5040805;28;20187;-64
2022/12/20 10:27:36;;;;;;;6.10;1.40;;;18.00;64.40;;;;;;5048563;28;20237;-64
2022/12/20 10:30:21;;;;;;;3.90;1.50;;;18.00;64.20;;;;;;5045541;28;20279;-67
2022/12/20 10:32:52;;;;;;;5.60;1.50;;;18.00;64.60;;;;;;5055093;28;20259;-71
2022/12/20 10:35:27;;;;;;;4.70;1.23;;;18.00;64.40;;;;;;5041669;28;20181;-65
2022/12/20 10:38:05;;;;;;;2.87;1.13;;;18.00;64.70;;;;;;5055326;28;20242;-67
2022/12/20 10:40:39;;;;;;;4.60;1.40;;;17.90;64.60;;;;;;5055043;28;20633;-67
2022/12/20 10:43:14;;;;;;;4.97;1.30;;;17.90;64.40;;;;;;5046098;28;20183;-67
2022/12/20 10:45:42;;;;;;;5.07;1.37;;;17.90;64.90;;;;;;5053218;28;20179;-64
2022/12/20 10:48:31;;;;;;;3.70;1.50;;;17.80;64.90;;;;;;5054219;28;20226;-64
2022/12/20 10:51:11;;;;;;;2.90;1.37;;;17.80;65.00;;;;;;5048244;28;20216;-65
2022/12/20 10:53:49;;;;;;;3.80;1.27;;;17.80;65.10;;;;;;5055324;28;20182;-64
2022/12/20 10:56:26;;;;;;;5.83;1.50;;;17.80;65.30;;;;;;5049290;28;20200;-64
2022/12/20 10:59:03;;;;;;;6.87;1.57;;;17.80;65.30;;;;;;5047559;28;20671;-64
2022/12/20 11:01:36;;;;;;;5.93;1.43;;;17.70;65.30;;;;;;5053608;28;20581;-65
2022/12/20 11:04:28;;;;;;;6.23;1.40;;;17.70;65.30;;;;;;5053469;28;20677;-65
2022/12/20 11:06:56;;;;;;;5.17;1.40;;;17.70;65.50;;;;;;5053507;28;20233;-65
2022/12/20 11:09:32;;;;;;;4.37;1.40;;;17.70;65.30;;;;;;5054270;28;20661;-66
2022/12/20 11:12:16;;;;;;;2.03;1.13;;;17.60;65.20;;;;;;5054351;28;20172;-65
2022/12/20 11:14:45;;;;;;;3.13;1.60;;;17.60;65.30;;;;;;5042403;28;20183;-65
2022/12/20 11:17:36;;;;;;;4.77;1.47;;;17.60;65.50;;;;;;5054428;28;20305;-65
2022/12/20 11:20:34;;;;;;;2.50;1.10;;;17.60;65.30;;;;;;5044261;28;20179;-65
2022/12/20 11:23:07;;;;;;;6.47;1.50;;;17.60;64.70;;;;;;5044274;28;20191;-65
2022/12/20 11:25:40;;;;;;;5.40;1.60;;;17.70;65.30;;;;;;5054218;28;20177;-65
2022/12/20 11:28:35;;;;;;;3.50;1.30;;;17.80;65.20;;;;;;5055160;28;20188;-65
2022/12/20 11:31:02;;;;;;;3.67;1.30;;;17.80;65.20;;;;;;5043646;28;20180;-65
2022/12/20 11:33:54;;;;;;;4.63;1.40;;;17.70;65.10;;;;;;5054152;28;20207;-65
2022/12/20 11:36:27;;;;;;;3.00;1.40;;;17.70;65.40;;;;;;5053062;28;20211;-65
2022/12/20 11:39:13;;;;;;;7.13;1.60;;;17.60;65.60;;;;;;5040346;28;20211;-65
2022/12/20 11:41:58;;;;;;;4.23;1.30;;;17.60;65.90;;;;;;5054390;28;20191;-65
2022/12/20 11:44:25;;;;;;;3.63;1.67;;;17.60;66.40;;;;;;5054323;28;20182;-65
2022/12/20 11:47:06;;;;;;;6.93;1.30;;;17.60;66.70;;;;;;5052800;28;20528;-65
2022/12/20 11:49:52;;;;;;;5.70;1.40;;;17.60;67.50;;;;;;5053074;28;20311;-68
2022/12/20 11:52:54;;;;;;;5.30;1.30;;;17.70;67.70;;;;;;5053839;28;20179;-65
2022/12/20 11:55:33;;;;;;;4.33;1.50;;;17.60;67.90;;;;;;5053967;28;20179;-66
2022/12/20 11:58:25;;;;;;;2.97;1.23;;;17.60;68.50;;;;;;5053695;28;20250;-73
2022/12/20 12:01:07;;;;;;;5.37;1.70;;;17.60;68.70;;;;;;5054055;28;20175;-71
2022/12/20 12:03:41;;;;;;;5.40;1.37;;;17.60;69.60;;;;;;5047526;28;20212;-67
2022/12/20 12:06:12;;;;;;;4.07;1.73;;;17.50;70.30;;;;;;5053459;28;20657;-67
2022/12/20 12:09:13;;;;;;;7.37;1.70;;;17.60;70.90;;;;;;5053339;28;20625;-65
2022/12/20 12:12:08;;;;;;;7.27;1.80;;;17.50;71.50;;;;;;5053649;28;20185;-66
2022/12/20 12:14:54;;;;;;;6.27;1.90;;;17.60;71.80;;;;;;5044045;28;20187;-73
2022/12/20 12:17:46;;;;;;;5.17;1.30;;;17.70;71.90;;;;;;5052743;28;20194;-68
2022/12/20 12:20:51;;;;;;;7.43;1.90;;;17.70;72.00;;;;;;5052854;28;20329;-67
2022/12/20 12:23:30;;;;;;;4.10;1.30;;;17.80;72.00;;;;;;5051799;28;20187;-67
2022/12/20 12:26:03;;;;;;;4.87;1.30;;;17.80;71.70;;;;;;5053387;28;20179;-68
2022/12/20 12:28:32;;;;;;;7.00;1.57;;;17.80;71.30;;;;;;5053190;28;20620;-71
2022/12/20 12:31:16;;;;;;;11.03;1.77;;;17.90;71.30;;;;;;5053575;28;20668;-65
2022/12/20 12:33:50;;;;;;;9.83;1.50;;;17.90;71.00;;;;;;5040905;28;20539;-65
2022/12/20 12:36:26;;;;;;;9.30;1.80;;;18.00;71.10;;;;;;5053272;28;20243;-66
2022/12/20 12:39:14;;;;;;;6.40;1.50;;;18.10;70.90;;;;;;5053065;28;20215;-66
2022/12/20 12:42:21;;;;;;;8.40;1.53;;;18.10;70.80;;;;;;5053281;28;20172;-64
2022/12/20 12:45:07;;;;;;;5.83;1.50;;;18.20;70.50;;;;;;5052962;28;20536;-65
2022/12/20 12:47:40;;;;;;;7.60;1.80;;;18.20;70.40;;;;;;5052618;28;20294;-67
2022/12/20 12:50:29;;;;;;;9.43;1.40;;;18.20;70.30;;;;;;5051623;28;20234;-65
2022/12/20 12:53:14;;;;;;;11.63;1.90;;;18.30;70.30;;;;;;5055433;28;20291;-67
2022/12/20 12:55:49;;;;;;;10.53;1.80;;;18.20;72.70;;;;;;5053037;28;20179;-72
2022/12/20 12:58:25;;;;;;;11.67;2.10;;;18.10;75.00;;;;;;5051667;28;20195;-68
2022/12/20 13:00:54;;;;;;;5.20;1.67;;;17.90;76.30;;;;;;5063866;28;20263;-72
2022/12/20 13:03:40;;;;;;;3.73;1.40;;;17.80;78.60;;;;;;5050179;28;20188;-72
2022/12/20 13:06:29;;;;;;;4.83;1.63;;;17.60;78.10;;;;;;5052563;28;20186;-70
2022/12/20 13:08:56;;;;;;;5.23;1.47;;;17.50;79.70;;;;;;5052962;28;20207;-69
2022/12/20 13:11:35;;;;;;;5.07;1.73;;;17.50;79.90;;;;;;5052532;28;20176;-69
2022/12/20 13:14:23;;;;;;;5.23;1.67;;;17.40;79.80;;;;;;5053068;28;20600;-68
2022/12/20 13:16:53;;;;;;;4.93;1.40;;;17.40;81.10;;;;;;5052813;28;20195;-71
2022/12/20 13:19:35;;;;;;;4.90;1.67;;;17.40;82.10;;;;;;5052503;28;20182;-68
2022/12/20 13:22:17;;;;;;;6.97;1.50;;;17.30;82.00;;;;;;5040260;28;20260;-69
2022/12/20 13:24:55;;;;;;;7.53;1.83;;;17.30;82.50;;;;;;5032678;28;20171;-68